createdAt,value
2023-11-10T00:01:22.964Z,99273.78
2023-11-10T00:03:53.007Z,99279.84
2023-11-10T00:06:22.794Z,99268.81
2023-11-10T00:08:52.068Z,99267.56
2023-11-10T00:11:20.932Z,99261.84
2023-11-10T00:13:52.359Z,99259.63
2023-11-10T00:16:21.711Z,99262.50
2023-11-10T00:18:50.746Z,99267.97
2023-11-10T00:21:21.021Z,99263.78
2023-11-10T00:23:51.540Z,99266.78
2023-11-10T00:26:24.943Z,99269.66
2023-11-10T00:28:55.266Z,99275.06
2023-11-10T00:31:24.029Z,99275.09
2023-11-10T00:33:53.931Z,99277.91
2023-11-10T00:36:26.122Z,99276.59
2023-11-10T00:38:55.830Z,99281.13
2023-11-10T00:41:24.613Z,99285.16
2023-11-10T00:43:53.476Z,99277.03
2023-11-10T00:46:23.124Z,99278.03
2023-11-10T00:48:52.793Z,99272.13
2023-11-10T00:51:21.662Z,99272.31
2023-11-10T00:53:50.469Z,99273.72
2023-11-10T00:56:20.070Z,99270.53
2023-11-10T00:58:48.847Z,99272.38
2023-11-10T01:01:17.605Z,99265.66
2023-11-10T01:03:46.586Z,99257.47
2023-11-10T01:06:16.384Z,99259.91
2023-11-10T01:08:46.137Z,99242.41
2023-11-10T01:11:16.155Z,99251.78
2023-11-10T01:13:45.730Z,99241.84
2023-11-10T01:16:14.494Z,99233.91
2023-11-10T01:18:43.987Z,99237.75
2023-11-10T01:21:13.786Z,99216.13
2023-11-10T01:23:43.240Z,99220.88
2023-11-10T01:26:14.417Z,99213.59
2023-11-10T01:28:44.056Z,99215.38
2023-11-10T01:31:15.543Z,99215.38
2023-11-10T01:33:45.427Z,99210.09
2023-11-10T01:36:14.349Z,99209.31
2023-11-10T01:38:43.329Z,99206.28
2023-11-10T01:41:12.279Z,99198.69
2023-11-10T01:43:41.870Z,99192.81
2023-11-10T01:46:47.130Z,99186.13
2023-11-10T01:49:22.700Z,99185.69
2023-11-10T01:51:56.748Z,99180.09
2023-11-10T01:54:35.855Z,99180.09
2023-11-10T01:57:06.551Z,99176.47
2023-11-10T01:59:36.458Z,99166.97
2023-11-10T02:02:05.544Z,99162.94
2023-11-10T02:04:35.328Z,99170.03
2023-11-10T02:07:04.888Z,99163.97
2023-11-10T02:09:34.651Z,99173.19
2023-11-10T02:12:04.713Z,99168.47
2023-11-10T02:14:34.417Z,99167.28
2023-11-10T02:17:04.194Z,99158.00
2023-11-10T02:19:34.686Z,99148.59
2023-11-10T02:22:05.930Z,99157.06
2023-11-10T02:24:37.140Z,99159.53
2023-11-10T02:27:07.561Z,99167.03
2023-11-10T02:29:42.265Z,99163.78
2023-11-10T02:32:13.034Z,99148.59
2023-11-10T02:34:42.689Z,99149.97
2023-11-10T02:37:12.177Z,99144.44
2023-11-10T02:39:41.477Z,99152.13
2023-11-10T02:42:10.309Z,99152.06
2023-11-10T02:44:39.939Z,99151.22
2023-11-10T02:47:09.462Z,99148.41
2023-11-10T02:49:39.156Z,99146.16
2023-11-10T02:52:08.725Z,99141.78
2023-11-10T02:54:38.309Z,99137.00
2023-11-10T02:57:07.101Z,99132.78
2023-11-10T02:59:38.427Z,99138.56
2023-11-10T03:02:08.022Z,99142.31
2023-11-10T03:04:42.006Z,99136.47
2023-11-10T03:07:12.091Z,99129.34
2023-11-10T03:09:42.417Z,99134.94
2023-11-10T03:12:12.225Z,99130.63
2023-11-10T03:14:45.772Z,99134.09
2023-11-10T03:17:14.619Z,99128.16
2023-11-10T03:19:44.241Z,99129.13
2023-11-10T03:22:15.437Z,99138.53
2023-11-10T03:24:46.431Z,99135.31
2023-11-10T03:27:15.558Z,99134.19
2023-11-10T03:29:45.020Z,99134.22
2023-11-10T03:32:15.467Z,99116.69
2023-11-10T03:34:46.867Z,99127.59
2023-11-10T03:37:15.697Z,99116.94
2023-11-10T03:39:44.703Z,99123.72
2023-11-10T03:42:14.390Z,99126.25
2023-11-10T03:44:44.070Z,99118.56
2023-11-10T03:47:12.959Z,99112.94
2023-11-10T03:49:42.642Z,99106.25
2023-11-10T03:52:11.440Z,99116.19
2023-11-10T03:54:41.103Z,99107.47
2023-11-10T03:57:10.655Z,99106.25
2023-11-10T03:59:42.837Z,99101.81
2023-11-10T04:02:12.380Z,99113.53
2023-11-10T04:04:42.233Z,99099.28
2023-11-10T04:07:11.978Z,99102.00
2023-11-10T04:09:42.557Z,99108.28
2023-11-10T04:12:11.402Z,99100.34
2023-11-10T04:14:41.734Z,99093.06
2023-11-10T04:17:11.052Z,99086.25
2023-11-10T04:19:39.812Z,99085.44
2023-11-10T04:22:08.893Z,99084.31
2023-11-10T04:24:38.533Z,99092.81
2023-11-10T04:27:07.513Z,99081.50
2023-11-10T04:29:37.631Z,99075.81
2023-11-10T04:32:06.764Z,99080.47
2023-11-10T04:34:35.678Z,99072.66
2023-11-10T04:37:07.851Z,99077.34
2023-11-10T04:39:40.195Z,99069.66
2023-11-10T04:42:09.085Z,99059.34
2023-11-10T04:44:37.293Z,99055.78
2023-11-10T04:47:06.214Z,99055.38
2023-11-10T04:49:34.170Z,99062.75
2023-11-10T04:52:04.006Z,99049.00
2023-11-10T04:54:35.388Z,99043.31
2023-11-10T04:57:05.136Z,99041.97
2023-11-10T04:59:34.587Z,99046.28
2023-11-10T05:02:04.275Z,99047.44
2023-11-10T05:04:33.939Z,99054.53
2023-11-10T05:07:03.749Z,99054.28
2023-11-10T05:09:33.362Z,99052.69
2023-11-10T05:12:03.081Z,99052.97
2023-11-10T05:14:31.946Z,99052.13
2023-11-10T05:17:01.738Z,99051.38
2023-11-10T05:19:31.443Z,99051.25
2023-11-10T05:22:01.062Z,99057.09
2023-11-10T05:24:30.935Z,99058.66
2023-11-10T05:27:00.822Z,99047.81
2023-11-10T05:29:29.634Z,99051.25
2023-11-10T05:32:00.407Z,99051.31
2023-11-10T05:34:30.727Z,99049.66
2023-11-10T05:37:00.661Z,99051.31
2023-11-10T05:39:30.443Z,99041.44
2023-11-10T05:42:00.207Z,99044.22
2023-11-10T05:44:29.934Z,99055.22
2023-11-10T05:46:58.765Z,99038.66
2023-11-10T05:49:27.658Z,99039.88
2023-11-10T05:51:57.330Z,99048.13
2023-11-10T05:54:27.490Z,99045.97
2023-11-10T05:56:57.336Z,99035.44
2023-11-10T05:59:29.029Z,99040.78
2023-11-10T06:01:58.609Z,99052.31
2023-11-10T06:04:34.677Z,99045.69
2023-11-10T06:07:05.619Z,99047.84
2023-11-10T06:09:35.535Z,99045.53
2023-11-10T06:12:08.986Z,99045.97
2023-11-10T06:14:38.261Z,99043.50
2023-11-10T06:17:08.036Z,99051.59
2023-11-10T06:19:37.048Z,99055.13
2023-11-10T06:22:06.416Z,99049.03
2023-11-10T06:24:35.741Z,99057.41
2023-11-10T06:27:04.856Z,99062.66
2023-11-10T06:29:33.929Z,99063.56
2023-11-10T06:32:04.434Z,99057.66
2023-11-10T06:34:32.669Z,99065.34
2023-11-10T06:37:02.745Z,99061.91
2023-11-10T06:39:33.133Z,99060.78
2023-11-10T06:42:02.411Z,99055.16
2023-11-10T06:44:30.252Z,99049.44
2023-11-10T06:47:00.929Z,99053.78
2023-11-10T06:49:30.636Z,99055.19
2023-11-10T06:51:59.584Z,99061.34
2023-11-10T06:54:28.493Z,99068.53
2023-11-10T06:57:00.293Z,99073.59
2023-11-10T06:59:30.466Z,99071.78
2023-11-10T07:01:59.370Z,99078.38
2023-11-10T07:04:29.005Z,99063.97
2023-11-10T07:06:58.068Z,99063.19
2023-11-10T07:09:27.229Z,99062.84
2023-11-10T07:11:55.123Z,99068.63
2023-11-10T07:14:24.991Z,99067.47
2023-11-10T07:16:53.984Z,99063.50
2023-11-10T07:19:22.764Z,99055.50
2023-11-10T07:21:52.448Z,99056.13
2023-11-10T07:24:21.397Z,99053.56
2023-11-10T07:26:50.140Z,99044.13
2023-11-10T07:29:19.707Z,99051.03
2023-11-10T07:31:48.889Z,99049.59
2023-11-10T07:34:17.713Z,99044.81
2023-11-10T07:36:46.318Z,99044.81
2023-11-10T07:39:15.411Z,99031.59
2023-11-10T07:41:45.004Z,99038.56
2023-11-10T07:44:13.891Z,99028.19
2023-11-10T07:46:42.109Z,99032.94
2023-11-10T07:49:12.676Z,99032.56
2023-11-10T07:51:42.898Z,99028.41
2023-11-10T07:54:18.124Z,99044.00
2023-11-10T07:56:48.019Z,99044.47
2023-11-10T07:59:17.225Z,99051.03
2023-11-10T08:01:45.964Z,99038.84
2023-11-10T08:04:14.772Z,99042.53
2023-11-10T08:06:46.478Z,99027.91
2023-11-10T08:09:16.610Z,99026.34
2023-11-10T08:11:52.576Z,99026.59
2023-11-10T08:14:24.198Z,99022.56
2023-11-10T08:16:52.173Z,99021.06
2023-11-10T08:19:20.917Z,99019.13
2023-11-10T08:21:50.310Z,99013.06
2023-11-10T08:24:18.295Z,99016.38
2023-11-10T08:26:46.222Z,99005.50
2023-11-10T08:29:14.712Z,99002.22
2023-11-10T08:31:43.472Z,99000.09
2023-11-10T08:34:11.589Z,98995.91
2023-11-10T08:36:41.620Z,98998.47
2023-11-10T08:39:09.657Z,99004.25
2023-11-10T08:41:39.377Z,99007.13
2023-11-10T08:44:09.417Z,99001.78
2023-11-10T08:46:38.172Z,99006.56
2023-11-10T08:49:06.776Z,99008.56
2023-11-10T08:51:35.709Z,99017.72
2023-11-10T08:54:04.942Z,99015.03
2023-11-10T08:56:35.031Z,99025.44
2023-11-10T08:59:05.086Z,99023.69
2023-11-10T09:01:38.474Z,99018.34
2023-11-10T09:04:18.202Z,99014.16
2023-11-10T09:06:54.133Z,99005.66
2023-11-10T09:09:23.134Z,99006.22
2023-11-10T09:11:52.729Z,98998.47
2023-11-10T09:14:21.788Z,98982.19
2023-11-10T09:16:51.204Z,98975.91
2023-11-10T09:19:22.292Z,98978.38
2023-11-10T09:21:52.356Z,98975.00
2023-11-10T09:24:22.530Z,98965.25
2023-11-10T09:26:52.071Z,98954.59
2023-11-10T09:29:22.444Z,98971.69
2023-11-10T09:31:52.616Z,98970.63
2023-11-10T09:34:25.339Z,98963.69
2023-11-10T09:36:57.792Z,98955.09
2023-11-10T09:39:26.959Z,98963.97
2023-11-10T09:42:09.567Z,98962.72
2023-11-10T09:44:57.290Z,98966.41
2023-11-10T09:47:28.591Z,98956.25
2023-11-10T09:49:58.336Z,98948.09
2023-11-10T09:52:27.716Z,98943.31
2023-11-10T09:54:56.519Z,98941.69
2023-11-10T09:57:29.410Z,98918.75
2023-11-10T10:00:01.909Z,98918.53
2023-11-10T10:02:33.160Z,98913.53
2023-11-10T10:05:04.717Z,98910.88
2023-11-10T10:07:33.574Z,98911.69
2023-11-10T10:10:04.148Z,98912.09
2023-11-10T10:12:36.668Z,98899.66
2023-11-10T10:15:06.532Z,98899.50
2023-11-10T10:17:38.865Z,98906.63
2023-11-10T10:20:20.788Z,98898.59
2023-11-10T10:22:51.793Z,98892.34
2023-11-10T10:25:22.635Z,98892.28
2023-11-10T10:27:53.063Z,98881.56
2023-11-10T10:30:26.071Z,98882.97
2023-11-10T10:32:54.148Z,98900.13
2023-11-10T10:35:25.020Z,98881.75
2023-11-10T10:37:54.865Z,98888.94
2023-11-10T10:40:25.785Z,98874.81
2023-11-10T10:42:56.287Z,98877.72
2023-11-10T10:45:31.756Z,98882.88
2023-11-10T10:48:05.991Z,98880.16
2023-11-10T10:50:36.009Z,98875.25
2023-11-10T10:53:09.500Z,98859.28
2023-11-10T10:55:42.175Z,98853.63
2023-11-10T10:58:14.184Z,98838.72
2023-11-10T11:00:43.143Z,98835.41
2023-11-10T11:03:58.477Z,98834.00
2023-11-10T11:07:28.085Z,98824.69
2023-11-10T11:10:54.568Z,98812.34
2023-11-10T11:13:46.103Z,98811.13
2023-11-10T11:16:57.423Z,98804.09
2023-11-10T11:19:37.501Z,98800.44
2023-11-10T11:22:09.465Z,98808.53
2023-11-10T11:24:41.973Z,98808.31
2023-11-10T11:27:13.441Z,98802.44
2023-11-10T11:29:43.480Z,98787.56
2023-11-10T11:32:20.905Z,98787.59
2023-11-10T11:34:58.544Z,98787.69
2023-11-10T11:37:35.549Z,98785.44
2023-11-10T11:40:08.996Z,98775.94
2023-11-10T11:42:43.206Z,98768.81
2023-11-10T11:45:17.996Z,98766.97
2023-11-10T11:47:47.123Z,98762.28
2023-11-10T11:50:16.111Z,98747.97
2023-11-10T11:52:46.741Z,98751.03
2023-11-10T11:55:16.771Z,98754.41
2023-11-10T11:57:48.397Z,98741.91
2023-11-10T12:00:18.135Z,98738.75
2023-11-10T12:02:47.236Z,98729.09
2023-11-10T12:05:16.322Z,98726.47
2023-11-10T12:07:45.900Z,98718.44
2023-11-10T12:10:14.328Z,98716.41
2023-11-10T12:12:43.380Z,98723.09
2023-11-10T12:15:11.993Z,98718.00
2023-11-10T12:17:43.734Z,98723.56
2023-11-10T12:20:13.546Z,98711.63
2023-11-10T12:22:57.536Z,98709.69
2023-11-10T12:25:31.239Z,98697.44
2023-11-10T12:28:01.044Z,98696.22
2023-11-10T12:30:29.250Z,98697.66
2023-11-10T12:32:57.278Z,98697.50
2023-11-10T12:35:26.471Z,98686.22
2023-11-10T12:37:56.470Z,98687.63
2023-11-10T12:40:27.226Z,98690.16
2023-11-10T12:42:56.194Z,98695.06
2023-11-10T12:45:27.771Z,98683.22
2023-11-10T12:48:03.835Z,98680.91
2023-11-10T12:50:39.190Z,98686.28
2023-11-10T12:53:12.581Z,98684.28
2023-11-10T12:55:40.655Z,98677.63
2023-11-10T12:58:10.542Z,98674.56
2023-11-10T13:00:44.844Z,98684.09
2023-11-10T13:03:13.890Z,98683.72
2023-11-10T13:05:42.726Z,98679.66
2023-11-10T13:08:12.193Z,98683.88
2023-11-10T13:10:41.185Z,98682.56
2023-11-10T13:13:11.021Z,98673.31
2023-11-10T13:15:39.924Z,98678.91
2023-11-10T13:18:08.921Z,98678.56
2023-11-10T13:20:38.603Z,98671.59
2023-11-10T13:23:08.307Z,98667.94
2023-11-10T13:25:45.369Z,98662.72
2023-11-10T13:28:15.657Z,98653.53
2023-11-10T13:30:45.717Z,98654.03
2023-11-10T13:33:14.612Z,98650.84
2023-11-10T13:35:43.525Z,98642.94
2023-11-10T13:38:13.520Z,98638.06
2023-11-10T13:40:43.284Z,98636.47
2023-11-10T13:43:13.034Z,98638.19
2023-11-10T13:45:41.034Z,98624.50
2023-11-10T13:48:12.643Z,98627.16
2023-11-10T13:50:42.605Z,98631.91
2023-11-10T13:53:14.670Z,98618.88
2023-11-10T13:55:46.083Z,98623.88
2023-11-10T13:58:15.865Z,98610.44
2023-11-10T14:00:47.721Z,98602.03
2023-11-10T14:03:18.673Z,98608.03
2023-11-10T14:05:49.151Z,98595.38
2023-11-10T14:08:18.843Z,98599.34
2023-11-10T14:10:48.757Z,98600.78
2023-11-10T14:13:17.623Z,98595.91
2023-11-10T14:15:47.350Z,98589.97
2023-11-10T14:18:16.279Z,98583.56
2023-11-10T14:20:48.442Z,98582.94
2023-11-10T14:23:17.562Z,98576.00
2023-11-10T14:25:48.302Z,98579.75
2023-11-10T14:28:17.998Z,98580.97
2023-11-10T14:30:49.170Z,98583.63
2023-11-10T14:33:19.953Z,98586.31
2023-11-10T14:35:52.993Z,98588.00
2023-11-10T14:38:22.741Z,98588.31
2023-11-10T14:40:53.508Z,98580.97
2023-11-10T14:43:22.398Z,98582.56
2023-11-10T14:45:54.529Z,98588.03
2023-11-10T14:48:25.900Z,98594.69
2023-11-10T14:50:55.805Z,98587.78
2023-11-10T14:53:30.301Z,98593.66
2023-11-10T14:56:00.241Z,98584.06
2023-11-10T14:58:30.510Z,98590.59
2023-11-10T15:01:00.378Z,98586.84
2023-11-10T15:03:30.135Z,98591.84
2023-11-10T15:06:00.387Z,98583.06
2023-11-10T15:08:30.119Z,98584.72
2023-11-10T15:11:00.434Z,98589.41
2023-11-10T15:13:30.415Z,98587.59
2023-11-10T15:15:59.820Z,98589.72
2023-11-10T15:18:29.509Z,98589.06
2023-11-10T15:20:59.728Z,98578.84
2023-11-10T15:23:28.529Z,98581.59
2023-11-10T15:25:58.339Z,98584.38
2023-11-10T15:28:28.530Z,98578.19
2023-11-10T15:30:57.565Z,98572.16
2023-11-10T15:33:27.955Z,98575.22
2023-11-10T15:35:57.588Z,98578.13
2023-11-10T15:38:28.030Z,98573.31
2023-11-10T15:40:58.435Z,98567.78
2023-11-10T15:43:28.545Z,98560.69
2023-11-10T15:46:01.353Z,98565.41
2023-11-10T15:48:37.324Z,98570.28
2023-11-10T15:51:12.448Z,98570.53
2023-11-10T15:53:42.015Z,98566.22
2023-11-10T15:56:13.108Z,98571.50
2023-11-10T15:58:42.701Z,98566.06
2023-11-10T16:01:12.410Z,98569.69
2023-11-10T16:03:42.160Z,98568.16
2023-11-10T16:06:11.436Z,98563.69
2023-11-10T16:08:41.674Z,98560.66
2023-11-10T16:11:11.395Z,98552.03
2023-11-10T16:13:40.851Z,98547.66
2023-11-10T16:16:15.530Z,98547.31
2023-11-10T16:18:45.221Z,98539.84
2023-11-10T16:21:17.107Z,98532.03
2023-11-10T16:23:47.853Z,98538.25
2023-11-10T16:26:23.706Z,98531.81
2023-11-10T16:28:52.438Z,98531.50
2023-11-10T16:31:21.362Z,98526.56
2023-11-10T16:33:52.347Z,98530.97
2023-11-10T16:36:21.432Z,98532.47
2023-11-10T16:38:50.250Z,98532.38
2023-11-10T16:41:30.914Z,98535.66
2023-11-10T16:44:00.560Z,98540.06
2023-11-10T16:46:28.674Z,98541.56
2023-11-10T16:48:58.598Z,98540.50
2023-11-10T16:51:27.474Z,98541.59
2023-11-10T16:53:57.079Z,98542.75
2023-11-10T16:56:30.797Z,98540.38
2023-11-10T16:59:06.288Z,98546.38
2023-11-10T17:01:34.947Z,98545.19
2023-11-10T17:04:06.455Z,98548.94
2023-11-10T17:06:34.669Z,98546.38
2023-11-10T17:09:05.702Z,98543.59
2023-11-10T17:11:35.383Z,98532.78
2023-11-10T17:14:05.222Z,98536.63
2023-11-10T17:16:35.074Z,98543.13
2023-11-10T17:19:03.957Z,98535.75
2023-11-10T17:21:33.010Z,98542.69
2023-11-10T17:24:03.790Z,98542.50
2023-11-10T17:26:32.491Z,98540.78
2023-11-10T17:29:02.254Z,98550.19
2023-11-10T17:31:31.121Z,98539.53
2023-11-10T17:34:01.071Z,98544.00
2023-11-10T17:36:30.709Z,98537.63
2023-11-10T17:39:00.252Z,98539.50
2023-11-10T17:41:28.070Z,98541.22
2023-11-10T17:43:58.305Z,98544.44
2023-11-10T17:46:29.286Z,98541.38
2023-11-10T17:48:59.317Z,98543.03
2023-11-10T17:51:29.001Z,98541.41
2023-11-10T17:53:57.953Z,98532.22
2023-11-10T17:56:27.523Z,98533.28
2023-11-10T17:58:56.336Z,98533.44
2023-11-10T18:01:26.042Z,98528.38
2023-11-10T18:03:56.046Z,98536.84
2023-11-10T18:06:25.078Z,98532.50
2023-11-10T18:08:53.995Z,98524.00
2023-11-10T18:11:27.050Z,98517.16
2023-11-10T18:13:58.416Z,98530.63
2023-11-10T18:16:28.114Z,98511.09
2023-11-10T18:18:58.581Z,98503.41
2023-11-10T18:21:28.313Z,98516.38
2023-11-10T18:23:57.921Z,98507.91
2023-11-10T18:26:29.263Z,98505.78
2023-11-10T18:29:03.046Z,98500.16
2023-11-10T18:31:33.158Z,98498.16
2023-11-10T18:34:01.383Z,98503.09
2023-11-10T18:36:31.697Z,98490.97
2023-11-10T18:39:03.577Z,98496.34
2023-11-10T18:41:32.413Z,98494.53
2023-11-10T18:44:01.246Z,98492.06
2023-11-10T18:46:31.476Z,98493.88
2023-11-10T18:49:03.962Z,98494.09
2023-11-10T18:51:36.595Z,98488.66
2023-11-10T18:54:05.604Z,98483.41
2023-11-10T18:56:37.011Z,98486.75
2023-11-10T18:59:06.930Z,98486.06
2023-11-10T19:01:37.815Z,98482.16
2023-11-10T19:04:07.405Z,98482.53
2023-11-10T19:06:37.776Z,98479.56
2023-11-10T19:09:10.670Z,98479.56
2023-11-10T19:11:40.564Z,98486.44
2023-11-10T19:14:11.146Z,98481.91
2023-11-10T19:16:40.069Z,98476.00
2023-11-10T19:19:09.010Z,98471.19
2023-11-10T19:21:41.206Z,98473.94
2023-11-10T19:24:11.077Z,98467.66
2023-11-10T19:26:42.197Z,98463.66
2023-11-10T19:29:12.535Z,98472.88
2023-11-10T19:31:41.468Z,98460.16
2023-11-10T19:34:11.255Z,98464.03
2023-11-10T19:36:40.941Z,98449.03
2023-11-10T19:39:14.628Z,98453.56
2023-11-10T19:41:43.483Z,98447.41
2023-11-10T19:44:12.010Z,98441.56
2023-11-10T19:46:42.796Z,98439.25
2023-11-10T19:49:13.358Z,98438.06
2023-11-10T19:56:53.645Z,98420.78
2023-11-10T19:59:25.514Z,98424.38
2023-11-10T20:01:56.619Z,98424.53
2023-11-10T20:04:26.240Z,98411.69
2023-11-10T20:06:55.152Z,98415.53
2023-11-10T20:09:24.482Z,98414.50
2023-11-10T20:11:55.934Z,98409.16
2023-11-10T20:14:25.906Z,98404.22
2023-11-10T20:16:54.896Z,98401.72
2023-11-10T20:19:23.772Z,98391.91
2023-11-10T20:21:52.571Z,98392.84
2023-11-10T20:24:22.288Z,98387.06
2023-11-10T20:26:52.725Z,98387.88
2023-11-10T20:29:23.011Z,98382.44
2023-11-10T20:31:52.462Z,98392.38
2023-11-10T20:34:22.391Z,98382.88
2023-11-10T20:36:51.384Z,98378.59
2023-11-10T20:39:20.588Z,98366.91
2023-11-10T20:41:52.424Z,98378.16
2023-11-10T20:44:22.090Z,98375.38
2023-11-10T20:46:51.707Z,98379.78
2023-11-10T20:49:23.027Z,98375.50
2023-11-10T20:51:58.524Z,98363.97
2023-11-10T20:54:28.280Z,98370.03
2023-11-10T20:56:58.613Z,98363.44
2023-11-10T20:59:27.513Z,98364.91
2023-11-10T21:01:57.214Z,98354.97
2023-11-10T21:04:27.939Z,98352.97
2023-11-10T21:06:56.916Z,98350.81
2023-11-10T21:09:27.176Z,98347.28
2023-11-10T21:11:55.470Z,98345.38
2023-11-10T21:14:25.218Z,98342.28
2023-11-10T21:16:55.793Z,98343.88
2023-11-10T21:19:24.726Z,98337.03
2023-11-10T21:21:55.054Z,98327.66
2023-11-10T21:24:24.656Z,98322.84
2023-11-10T21:26:53.465Z,98326.47
2023-11-10T21:29:22.952Z,98326.69
2023-11-10T21:31:53.474Z,98329.69
2023-11-10T21:34:24.330Z,98323.78
2023-11-10T21:36:53.373Z,98322.63
2023-11-10T21:39:23.394Z,98313.44
2023-11-10T21:41:55.694Z,98321.13
2023-11-10T21:44:24.913Z,98315.91
2023-11-10T21:46:54.496Z,98315.56
2023-11-10T21:49:25.986Z,98319.31
2023-11-10T21:51:54.761Z,98307.91
2023-11-10T21:54:24.478Z,98305.09
2023-11-10T21:56:53.371Z,98304.78
2023-11-10T21:59:23.251Z,98310.56
2023-11-10T22:01:52.221Z,98291.84
2023-11-10T22:04:22.080Z,98286.06
2023-11-10T22:06:51.696Z,98288.16
2023-11-10T22:09:20.520Z,98280.22
2023-11-10T22:11:50.149Z,98289.31
2023-11-10T22:14:18.896Z,98279.16
2023-11-10T22:16:47.882Z,98274.78
2023-11-10T22:19:21.500Z,98277.03
2023-11-10T22:21:50.328Z,98281.59
2023-11-10T22:24:20.103Z,98279.47
2023-11-10T22:26:48.887Z,98274.94
2023-11-10T22:29:17.606Z,98273.50
2023-11-10T22:31:46.383Z,98281.38
2023-11-10T22:34:14.353Z,98276.25
2023-11-10T22:36:43.906Z,98274.19
2023-11-10T22:39:14.357Z,98270.38
2023-11-10T22:41:44.595Z,98261.28
2023-11-10T22:44:13.518Z,98264.97
2023-11-10T22:46:42.912Z,98264.69
2023-11-10T22:49:14.628Z,98270.63
2023-11-10T22:51:43.880Z,98265.47
2023-11-10T22:54:14.462Z,98264.28
2023-11-10T22:56:45.071Z,98262.91
2023-11-10T22:59:14.099Z,98262.69
2023-11-10T23:01:43.649Z,98269.28
2023-11-10T23:04:13.254Z,98265.16
2023-11-10T23:06:42.103Z,98256.41
2023-11-10T23:09:13.091Z,98253.44
2023-11-10T23:11:43.071Z,98249.78
2023-11-10T23:14:12.601Z,98252.66
2023-11-10T23:16:41.451Z,98251.03
2023-11-10T23:19:10.818Z,98248.59
2023-11-10T23:21:41.072Z,98247.91
2023-11-10T23:24:10.639Z,98237.44
2023-11-10T23:26:41.479Z,98242.31
2023-11-10T23:29:10.261Z,98242.25
2023-11-10T23:31:40.478Z,98236.19
2023-11-10T23:34:09.234Z,98235.19
2023-11-10T23:36:38.875Z,98233.22
2023-11-10T23:39:07.936Z,98224.59
2023-11-10T23:41:37.767Z,98229.13
2023-11-10T23:44:08.134Z,98221.63
2023-11-10T23:46:37.841Z,98232.72
2023-11-10T23:49:09.294Z,98228.09
2023-11-10T23:51:39.858Z,98220.13
2023-11-10T23:54:09.562Z,98219.41
2023-11-10T23:56:40.095Z,98218.91
2023-11-10T23:59:09.978Z,98219.78
